This is the latest recevied weather packets stored in our database for station/object WO5CID. If no packets are shown the sender has not sent any weather packets the latest 1 day(s).
| Time | Temp. | Humidity | Pressure | Rain* | Wind** | Luminosity | Snow |
|---|---|---|---|---|---|---|---|
| 1778083388 | 30° C | 46% | 1017.2 hPa | 0 mm | - | 750 W/m² | - |
| 1778083087 | 30° C | 47% | 1017.3 hPa | 0 mm | - | 760 W/m² | - |
| 1778082783 | 30° C | 45% | 1017.4 hPa | 0 mm | - | 699 W/m² | - |
| 1778081348 | 30° C | 49% | 1017.5 hPa | 0 mm | - | 806 W/m² | - |
| 1778079530 | 28.33° C | 56% | 1017.3 hPa | 0 mm | - | 633 W/m² | - |
| 1778079226 | 28.33° C | 56% | 1017.2 hPa | 0 mm | - | 626 W/m² | - |
| 1778078924 | 28.33° C | 58% | 1017.2 hPa | 0 mm | - | 634 W/m² | - |
| 1778078319 | 27.78° C | 60% | 1017.2 hPa | 0 mm | - | 519 W/m² | - |
| 1778077714 | 27.78° C | 59% | 1017.3 hPa | 0 mm | - | 576 W/m² | - |
| 1778076202 | 26.67° C | 64% | 1017.3 hPa | 0 mm | - | 434 W/m² | - |
| 1778075899 | 26.11° C | 66% | 1017.3 hPa | 0 mm | - | 485 W/m² | - |
| 1778075292 | 26.11° C | 66% | 1017.1 hPa | 0 mm | - | 457 W/m² | - |
| 1778074079 | 25° C | 69% | 1017 hPa | 0 mm | - | 367 W/m² | - |
| 1778069843 | 18.33° C | 85% | 1016.9 hPa | 0 mm | - | 148 W/m² | - |
| 1778069539 | 17.78° C | 88% | 1016.6 hPa | 0 mm | - | 122 W/m² | - |
| 1778068934 | 17.22° C | 88% | 1016.7 hPa | 0 mm | - | 72 W/m² | - |
| 1778068632 | 16.67° C | 89% | 1016.6 hPa | 0 mm | - | 73 W/m² | - |
| 1778068330 | 16.67° C | 91% | 1016.5 hPa | 0 mm | - | 68 W/m² | - |
| 1778068027 | 16.11° C | 92% | 1016.5 hPa | 0 mm | - | 64 W/m² | - |
| 1778067423 | 15.56° C | 95% | 1016.6 hPa | 0 mm | - | 56 W/m² | - |
| 1778067120 | 15° C | 95% | 1016.4 hPa | 0 mm | - | 51 W/m² | - |
| 1778066816 | 15° C | 96% | 1016.6 hPa | 0 mm | - | 45 W/m² | - |
| 1778066514 | 15° C | 96% | 1016.3 hPa | 0 mm | - | 37 W/m² | - |
| 1778066211 | 14.44° C | 96% | 1016.2 hPa | 0 mm | - | 32 W/m² | - |
| 1778065909 | 14.44° C | 96% | 1016.3 hPa | 0 mm | - | 28 W/m² | - |
* Rain latest hour (hover to see other rain measurements)
** Current wind speed in m/s (hover to see current wind gust speed)